Time;durP1;ratioP1;P1;durP2;ratioP2;P2;SDS_P1;SDS_P2;PMS_P1;PMS_P2;Temp;Humidity;BMP_temperature;BMP_pressure;BME280_temperature;BME280_humidity;BME280_pressure;Samples;Min_cycle;Max_cycle;Signal;HPM_P1;HPM_P2
2023/01/25 00:01:22;;;;;;;53.33;38.93;;;2.50;99.90;;;;;;4976593;28;20623;-55
2023/01/25 00:03:47;;;;;;;55.73;40.27;;;2.50;99.90;;;;;;4976537;28;20285;-54
2023/01/25 00:06:13;;;;;;;56.05;39.67;;;2.70;99.90;;;;;;4976429;28;20209;-52
2023/01/25 00:08:38;;;;;;;55.70;40.17;;;2.60;99.90;;;;;;4976426;28;20208;-52
2023/01/25 00:11:04;;;;;;;57.28;39.53;;;2.60;99.90;;;;;;4976199;28;20542;-55
2023/01/25 00:13:30;;;;;;;58.30;38.57;;;2.70;99.90;;;;;;4976493;28;20678;-56
2023/01/25 00:16:03;;;;;;;59.70;43.45;;;2.80;99.90;;;;;;4976269;28;20217;-54
2023/01/25 00:18:28;;;;;;;56.97;41.10;;;2.80;99.90;;;;;;4976240;28;20261;-55
2023/01/25 00:20:54;;;;;;;59.80;41.92;;;2.90;99.90;;;;;;4976193;28;20671;-54
2023/01/25 00:23:20;;;;;;;57.00;40.70;;;2.90;99.90;;;;;;4975887;28;20209;-54
2023/01/25 00:25:45;;;;;;;60.50;39.23;;;2.70;99.90;;;;;;4976000;28;20194;-54
2023/01/25 00:28:11;;;;;;;57.13;40.10;;;2.80;99.90;;;;;;4976147;28;20197;-55
2023/01/25 00:30:37;;;;;;;54.67;38.20;;;2.80;99.90;;;;;;4975895;28;20240;-53
2023/01/25 00:33:25;;;;;;;58.47;39.38;;;2.90;99.90;;;;;;4975997;28;20216;-54
2023/01/25 00:35:55;;;;;;;56.20;41.03;;;2.90;99.90;;;;;;4975648;28;20225;-56
2023/01/25 00:38:33;;;;;;;58.17;39.92;;;2.90;99.90;;;;;;4975657;28;20196;-55
2023/01/25 00:40:59;;;;;;;56.60;38.72;;;2.90;99.90;;;;;;4975870;28;20177;-54
2023/01/25 00:43:25;;;;;;;60.63;42.23;;;2.90;99.90;;;;;;4975742;28;20225;-54
2023/01/25 00:45:51;;;;;;;60.60;41.67;;;2.80;99.90;;;;;;4975724;28;20209;-54
2023/01/25 00:48:16;;;;;;;59.55;42.05;;;2.70;99.90;;;;;;4975598;28;20257;-54
2023/01/25 00:50:42;;;;;;;58.53;41.10;;;2.90;99.90;;;;;;4975464;28;20190;-54
2023/01/25 00:53:08;;;;;;;59.50;41.30;;;2.90;99.90;;;;;;4975780;28;20308;-54
2023/01/25 00:55:34;;;;;;;59.63;40.28;;;2.60;99.90;;;;;;4975367;28;20315;-53
2023/01/25 00:57:59;;;;;;;60.95;40.97;;;2.80;99.90;;;;;;4975365;28;20179;-55
2023/01/25 01:00:25;;;;;;;59.42;39.15;;;2.70;99.90;;;;;;4975489;28;20268;-53
2023/01/25 01:02:50;;;;;;;57.70;41.33;;;2.50;99.90;;;;;;4975344;28;20653;-53
2023/01/25 01:05:16;;;;;;;57.30;41.20;;;2.40;99.90;;;;;;4974282;28;20613;-54
2023/01/25 01:07:42;;;;;;;59.63;41.27;;;2.30;99.90;;;;;;4975188;28;20647;-54
2023/01/25 01:10:09;;;;;;;57.83;40.20;;;2.20;99.90;;;;;;4975367;28;20224;-54
2023/01/25 01:12:34;;;;;;;56.50;39.65;;;2.20;99.90;;;;;;4975048;28;20205;-54
2023/01/25 01:15:00;;;;;;;57.58;40.58;;;2.20;99.90;;;;;;4975149;28;20748;-56
2023/01/25 01:17:26;;;;;;;58.40;41.20;;;2.30;99.90;;;;;;4975149;28;20705;-53
2023/01/25 01:19:51;;;;;;;57.83;39.97;;;2.30;99.90;;;;;;4975521;28;20184;-54
2023/01/25 01:22:17;;;;;;;58.10;40.13;;;2.40;99.90;;;;;;4974947;28;20266;-55
2023/01/25 01:24:42;;;;;;;59.83;38.97;;;2.40;99.90;;;;;;4975065;28;20187;-55
2023/01/25 01:27:08;;;;;;;56.07;40.53;;;2.50;99.90;;;;;;4975315;28;20189;-54
2023/01/25 01:29:34;;;;;;;56.03;37.38;;;2.50;99.90;;;;;;4974834;28;20178;-53
2023/01/25 01:31:59;;;;;;;59.10;41.37;;;2.60;99.90;;;;;;4974874;28;20191;-54
2023/01/25 01:34:25;;;;;;;57.50;40.83;;;2.70;99.90;;;;;;4974803;28;20202;-54
2023/01/25 01:36:51;;;;;;;55.25;39.25;;;2.60;99.90;;;;;;4974640;28;20268;-54
2023/01/25 01:39:17;;;;;;;61.27;41.60;;;2.40;99.90;;;;;;4974720;28;20654;-53
2023/01/25 01:41:43;;;;;;;60.50;41.87;;;2.30;99.90;;;;;;4974812;28;20535;-54
2023/01/25 01:44:19;;;;;;;59.90;41.97;;;2.20;99.90;;;;;;4974776;28;20188;-55
2023/01/25 01:46:56;;;;;;;60.63;38.73;;;2.10;99.90;;;;;;4974741;28;20188;-53
2023/01/25 01:49:26;;;;;;;61.40;40.88;;;2.10;99.90;;;;;;4974591;28;20192;-54
2023/01/25 01:52:00;;;;;;;59.92;40.15;;;2.10;99.90;;;;;;4974765;28;20676;-55
2023/01/25 01:54:52;;;;;;;62.70;40.28;;;2.30;99.90;;;;;;4974597;28;20635;-55
2023/01/25 01:57:23;;;;;;;61.08;41.45;;;2.40;99.90;;;;;;4974625;28;20650;-53
2023/01/25 02:00:01;;;;;;;57.55;40.47;;;2.40;99.90;;;;;;4974570;28;20191;-55
2023/01/25 02:02:27;;;;;;;59.67;40.20;;;2.50;99.90;;;;;;4974366;28;20546;-54
2023/01/25 02:04:56;;;;;;;59.23;42.27;;;2.30;99.90;;;;;;4974513;28;20188;-53
2023/01/25 02:07:30;;;;;;;60.57;40.90;;;2.30;99.90;;;;;;4974324;28;20185;-55
2023/01/25 02:09:57;;;;;;;60.30;40.22;;;2.10;99.90;;;;;;4974363;28;20172;-55
2023/01/25 02:12:24;;;;;;;58.17;39.00;;;2.10;99.90;;;;;;4973045;28;20185;-53
2023/01/25 02:14:52;;;;;;;61.08;42.08;;;2.20;99.90;;;;;;4974234;28;20182;-54
2023/01/25 02:17:34;;;;;;;65.65;42.63;;;2.40;99.90;;;;;;4976937;28;20177;-52
2023/01/25 02:20:00;;;;;;;62.97;41.07;;;2.60;99.90;;;;;;4978282;28;20639;-54
2023/01/25 02:22:39;;;;;;;65.37;42.33;;;2.40;99.90;;;;;;4978187;28;20196;-54
2023/01/25 02:25:09;;;;;;;67.33;43.40;;;2.30;99.90;;;;;;4978134;28;20200;-55
2023/01/25 02:27:39;;;;;;;65.03;44.42;;;2.10;99.90;;;;;;4978253;28;20185;-53
2023/01/25 02:30:06;;;;;;;69.60;46.03;;;2.00;99.90;;;;;;4976999;28;20636;-53
2023/01/25 02:32:32;;;;;;;65.30;42.93;;;2.00;99.90;;;;;;4977922;28;20186;-54
2023/01/25 02:34:58;;;;;;;66.17;41.07;;;2.20;99.90;;;;;;4977937;28;20548;-52
2023/01/25 02:37:24;;;;;;;67.93;44.13;;;2.20;99.90;;;;;;4977840;28;20248;-52
2023/01/25 02:39:50;;;;;;;64.77;42.03;;;2.10;99.90;;;;;;4978098;28;20232;-54
2023/01/25 02:42:16;;;;;;;66.93;41.93;;;2.00;99.90;;;;;;4977986;28;20225;-55
2023/01/25 02:44:42;;;;;;;63.57;40.97;;;2.00;99.90;;;;;;4978011;28;20187;-54
2023/01/25 02:47:08;;;;;;;61.00;39.97;;;2.00;99.90;;;;;;4977889;28;20189;-54
2023/01/25 02:49:36;;;;;;;64.50;40.90;;;2.10;99.90;;;;;;4977781;28;20181;-51
2023/01/25 02:52:03;;;;;;;67.27;42.40;;;2.00;99.90;;;;;;4977688;28;20601;-53
2023/01/25 02:54:29;;;;;;;67.80;41.37;;;1.90;99.90;;;;;;4977637;28;20184;-54
2023/01/25 02:56:55;;;;;;;69.40;41.43;;;1.90;99.90;;;;;;4977701;28;20315;-53
2023/01/25 02:59:21;;;;;;;66.50;43.30;;;2.00;99.90;;;;;;4977523;28;20182;-55
2023/01/25 03:01:46;;;;;;;68.93;42.97;;;2.00;99.90;;;;;;4977899;28;20193;-54
2023/01/25 03:04:12;;;;;;;69.83;43.70;;;2.00;99.90;;;;;;4977467;28;20655;-56
2023/01/25 03:06:39;;;;;;;63.27;41.40;;;2.00;99.90;;;;;;4977468;28;20243;-55
2023/01/25 03:09:06;;;;;;;72.67;45.33;;;2.10;99.90;;;;;;4977630;28;20188;-54
2023/01/25 03:11:32;;;;;;;67.50;44.67;;;2.20;99.90;;;;;;4977537;28;20190;-54
2023/01/25 03:13:58;;;;;;;68.93;45.27;;;2.20;99.90;;;;;;4977723;28;20639;-54
2023/01/25 03:16:24;;;;;;;67.87;44.70;;;2.10;99.90;;;;;;4977276;28;20217;-54
2023/01/25 03:18:53;;;;;;;74.73;47.77;;;2.20;99.90;;;;;;4977204;28;20185;-54
2023/01/25 03:21:20;;;;;;;68.87;43.00;;;2.10;99.90;;;;;;4976131;28;20280;-54
2023/01/25 03:23:47;;;;;;;67.82;44.08;;;2.10;99.90;;;;;;4977221;28;20266;-54
2023/01/25 03:26:15;;;;;;;64.07;42.43;;;2.00;99.90;;;;;;4977266;28;20185;-55
2023/01/25 03:28:42;;;;;;;63.07;41.77;;;1.90;99.90;;;;;;4975897;28;20724;-54
2023/01/25 03:31:10;;;;;;;63.43;43.23;;;1.90;99.90;;;;;;4976927;28;20520;-55
2023/01/25 03:33:36;;;;;;;66.73;42.53;;;2.00;99.90;;;;;;4976938;28;20674;-52
2023/01/25 03:36:02;;;;;;;67.83;44.33;;;1.90;99.90;;;;;;4977068;28;20249;-51
2023/01/25 03:38:28;;;;;;;75.47;45.23;;;2.00;99.90;;;;;;4977063;28;20194;-54
2023/01/25 03:40:53;;;;;;;75.93;45.50;;;1.80;99.90;;;;;;4976812;28;20566;-54
2023/01/25 03:43:20;;;;;;;75.13;45.77;;;1.80;99.90;;;;;;4976899;28;20643;-54
2023/01/25 03:45:51;;;;;;;75.60;44.50;;;1.80;99.90;;;;;;4976779;28;20181;-54
2023/01/25 03:48:16;;;;;;;68.47;42.10;;;1.80;99.90;;;;;;4976770;28;20232;-54
2023/01/25 03:50:42;;;;;;;76.80;45.57;;;1.80;99.90;;;;;;4976832;28;20193;-55
2023/01/25 03:53:30;;;;;;;75.83;46.73;;;1.90;99.90;;;;;;4976763;28;20257;-55
2023/01/25 03:56:03;;;;;;;75.23;46.40;;;1.80;99.90;;;;;;4976613;28;20252;-55
2023/01/25 03:58:29;;;;;;;72.33;44.53;;;2.00;99.90;;;;;;4976571;28;20173;-53
2023/01/25 04:00:57;;;;;;;75.93;45.40;;;2.00;99.90;;;;;;4976656;28;20189;-54
2023/01/25 04:03:24;;;;;;;74.83;46.33;;;1.80;99.90;;;;;;4976571;28;20196;-53
2023/01/25 04:05:50;;;;;;;72.13;44.87;;;1.90;99.90;;;;;;4976565;28;20185;-54
2023/01/25 04:08:16;;;;;;;70.63;42.97;;;1.90;99.90;;;;;;4976356;28;20546;-54
2023/01/25 04:10:41;;;;;;;66.97;43.20;;;2.00;99.90;;;;;;4976372;28;20192;-54
2023/01/25 04:13:07;;;;;;;68.00;45.20;;;2.20;99.90;;;;;;4974930;28;20188;-55
2023/01/25 04:15:33;;;;;;;71.97;46.77;;;2.20;99.90;;;;;;4976110;28;20735;-54
2023/01/25 04:17:59;;;;;;;69.15;42.70;;;2.20;99.90;;;;;;4976350;28;20261;-54
2023/01/25 04:20:24;;;;;;;68.43;44.47;;;2.20;99.90;;;;;;4976204;28;20179;-56
2023/01/25 04:22:50;;;;;;;70.83;44.83;;;2.30;99.90;;;;;;4976242;28;20666;-53
2023/01/25 04:25:16;;;;;;;73.13;46.17;;;2.30;99.90;;;;;;4975898;28;20201;-55
2023/01/25 04:27:42;;;;;;;71.20;45.25;;;2.30;99.90;;;;;;4975930;28;20774;-53
2023/01/25 04:30:08;;;;;;;66.13;42.67;;;2.30;99.90;;;;;;4976143;28;20186;-55
2023/01/25 04:32:35;;;;;;;67.57;41.90;;;2.30;99.90;;;;;;4975851;28;20177;-55
2023/01/25 04:35:00;;;;;;;69.45;43.08;;;2.40;99.90;;;;;;4975845;28;20185;-57
2023/01/25 04:37:26;;;;;;;66.13;42.92;;;2.50;99.90;;;;;;4975913;28;20182;-55
2023/01/25 04:39:52;;;;;;;70.53;43.30;;;2.50;99.90;;;;;;4975600;28;20213;-54
2023/01/25 04:42:17;;;;;;;68.10;45.03;;;2.50;99.90;;;;;;4975759;28;20531;-55
2023/01/25 04:44:43;;;;;;;67.53;44.40;;;2.50;99.90;;;;;;4975891;28;20191;-54
2023/01/25 04:47:09;;;;;;;72.43;46.00;;;2.50;99.90;;;;;;4975863;28;20182;-55
2023/01/25 04:49:34;;;;;;;67.07;43.10;;;2.50;99.90;;;;;;4975735;28;20261;-53
2023/01/25 04:52:00;;;;;;;68.95;44.53;;;2.60;99.90;;;;;;4975610;28;20216;-54
2023/01/25 04:54:26;;;;;;;69.17;45.03;;;2.60;99.90;;;;;;4975824;28;20186;-56
2023/01/25 04:56:51;;;;;;;64.67;44.90;;;2.60;99.90;;;;;;4975343;28;20256;-55
2023/01/25 04:59:17;;;;;;;67.63;41.90;;;2.60;99.90;;;;;;4975663;28;20190;-54
2023/01/25 05:01:43;;;;;;;62.63;40.63;;;2.60;99.90;;;;;;4975326;28;20220;-54
2023/01/25 05:04:08;;;;;;;67.10;41.83;;;2.50;99.90;;;;;;4975468;28;20180;-53
2023/01/25 05:06:34;;;;;;;64.32;43.58;;;2.60;99.90;;;;;;4975372;28;20185;-54
2023/01/25 05:09:00;;;;;;;64.63;44.53;;;2.60;99.90;;;;;;4975244;28;20177;-54
2023/01/25 05:11:25;;;;;;;64.20;43.38;;;2.60;99.90;;;;;;4975181;28;20661;-54
2023/01/25 05:13:53;;;;;;;63.20;43.37;;;2.60;99.90;;;;;;4975420;28;20225;-54
2023/01/25 05:16:19;;;;;;;65.33;44.13;;;2.60;99.90;;;;;;4975172;28;20217;-55
2023/01/25 05:18:45;;;;;;;65.00;43.70;;;2.60;99.90;;;;;;4975224;28;20532;-53
2023/01/25 05:21:56;;;;;;;71.85;42.92;;;2.60;99.90;;;;;;4974035;28;20538;-54
2023/01/25 05:23:56;;;;;;;65.60;42.50;;;2.60;99.90;;;;;;4974785;28;20654;-54
2023/01/25 05:29:06;;;;;;;68.38;46.72;;;2.50;99.90;;;;;;4975213;28;20240;-53
2023/01/25 05:31:31;;;;;;;65.10;44.07;;;2.50;99.90;;;;;;4974861;28;20593;-54
2023/01/25 05:33:57;;;;;;;64.82;42.58;;;2.50;99.90;;;;;;4974931;28;20545;-55
2023/01/25 05:36:23;;;;;;;60.75;40.03;;;2.70;99.90;;;;;;4974697;28;20296;-54
2023/01/25 05:38:48;;;;;;;63.47;42.88;;;2.50;99.90;;;;;;4974981;28;20235;-55
2023/01/25 05:41:14;;;;;;;61.72;41.63;;;2.40;99.90;;;;;;4974930;28;20539;-54
2023/01/25 05:43:39;;;;;;;64.10;41.20;;;2.40;99.90;;;;;;4974825;28;20650;-54
2023/01/25 05:46:06;;;;;;;62.20;41.80;;;2.40;99.90;;;;;;4974768;28;20186;-55
2023/01/25 05:48:32;;;;;;;61.23;40.37;;;2.40;99.90;;;;;;4974554;28;20665;-54
2023/01/25 05:50:58;;;;;;;60.50;39.17;;;2.50;99.90;;;;;;4974020;28;20263;-53
2023/01/25 05:53:27;;;;;;;57.67;37.40;;;2.50;99.90;;;;;;4974570;28;20192;-54
2023/01/25 05:55:53;;;;;;;61.03;38.30;;;2.30;99.90;;;;;;4974663;28;20217;-53
2023/01/25 05:58:19;;;;;;;60.70;40.15;;;2.20;99.90;;;;;;4974644;28;20178;-52
2023/01/25 06:00:44;;;;;;;61.17;38.70;;;2.10;99.90;;;;;;4974546;28;20174;-53
2023/01/25 06:03:10;;;;;;;61.95;40.38;;;2.10;99.90;;;;;;4974486;28;20182;-54
2023/01/25 06:05:36;;;;;;;60.77;40.17;;;2.20;99.90;;;;;;4974425;28;20202;-55
2023/01/25 06:08:02;;;;;;;58.70;38.20;;;2.10;99.90;;;;;;4974338;28;20193;-55
2023/01/25 06:10:28;;;;;;;59.73;40.53;;;2.20;99.90;;;;;;4974513;28;20177;-53
2023/01/25 06:12:58;;;;;;;61.73;42.17;;;2.20;99.90;;;;;;4974484;28;20187;-54
2023/01/25 06:15:24;;;;;;;59.93;40.87;;;2.10;99.90;;;;;;4974284;28;20331;-54
2023/01/25 06:17:54;;;;;;;60.57;39.63;;;2.20;99.90;;;;;;4974325;28;20174;-54
2023/01/25 06:20:20;;;;;;;65.93;42.80;;;2.30;99.90;;;;;;4974277;28;20171;-54
2023/01/25 06:22:52;;;;;;;63.70;43.53;;;2.30;99.90;;;;;;4974476;28;20193;-53
2023/01/25 06:25:18;;;;;;;61.03;39.93;;;2.30;99.90;;;;;;4974482;28;20212;-54
2023/01/25 06:27:44;;;;;;;57.33;40.27;;;2.00;99.90;;;;;;4974398;28;20188;-53
2023/01/25 06:30:10;;;;;;;58.73;40.17;;;2.00;99.90;;;;;;4974314;28;20266;-53
2023/01/25 06:32:35;;;;;;;63.03;43.27;;;2.10;99.90;;;;;;4974191;28;20663;-53
2023/01/25 06:35:02;;;;;;;64.77;40.97;;;2.10;99.90;;;;;;4974123;28;20180;-53
2023/01/25 06:37:28;;;;;;;63.20;40.30;;;2.20;99.90;;;;;;4974383;28;20178;-54
2023/01/25 06:39:53;;;;;;;63.50;41.63;;;2.30;99.90;;;;;;4974162;28;20181;-54
2023/01/25 06:42:19;;;;;;;62.63;41.23;;;2.30;99.90;;;;;;4974094;28;20189;-54
2023/01/25 06:44:45;;;;;;;63.27;41.33;;;2.20;99.90;;;;;;4974062;28;20247;-54
2023/01/25 06:47:11;;;;;;;60.13;41.20;;;2.10;99.90;;;;;;4974096;28;20190;-54
2023/01/25 06:49:37;;;;;;;61.97;41.50;;;2.10;99.90;;;;;;4973887;28;20186;-56
2023/01/25 06:52:03;;;;;;;64.17;42.73;;;2.10;99.90;;;;;;4974139;28;20178;-54
2023/01/25 06:54:28;;;;;;;64.13;41.47;;;2.20;99.90;;;;;;4974179;28;20198;-52
2023/01/25 06:56:54;;;;;;;64.40;41.40;;;2.20;99.90;;;;;;4973927;28;20218;-53
2023/01/25 06:59:20;;;;;;;109.27;65.00;;;2.10;99.90;;;;;;4973973;28;20325;-54
2023/01/25 07:01:45;;;;;;;69.83;44.77;;;2.20;99.90;;;;;;4974922;28;20189;-53
2023/01/25 07:04:11;;;;;;;69.33;42.73;;;2.30;99.90;;;;;;4977442;28;20276;-54
2023/01/25 07:06:38;;;;;;;64.60;42.97;;;2.30;99.90;;;;;;4978097;28;20183;-54
2023/01/25 07:09:10;;;;;;;65.90;43.07;;;2.20;99.90;;;;;;4977469;28;20181;-52
2023/01/25 07:11:36;;;;;;;66.55;42.05;;;2.20;99.90;;;;;;4977443;28;20192;-55
2023/01/25 07:14:02;;;;;;;62.43;42.13;;;2.20;99.90;;;;;;4977471;28;20181;-53
2023/01/25 07:16:28;;;;;;;60.93;39.60;;;2.20;99.90;;;;;;4977240;28;20776;-55
2023/01/25 07:18:54;;;;;;;63.53;42.47;;;2.00;99.90;;;;;;4977141;28;20275;-54
2023/01/25 07:21:22;;;;;;;56.63;37.17;;;1.70;99.90;;;;;;4977365;28;20639;-54
2023/01/25 07:23:49;;;;;;;57.80;38.57;;;1.60;99.90;;;;;;4977355;28;20248;-54
2023/01/25 07:26:17;;;;;;;57.50;36.67;;;1.40;99.90;;;;;;4977148;28;20265;-55
2023/01/25 07:28:43;;;;;;;61.43;39.93;;;1.40;99.90;;;;;;4977315;28;20185;-54
2023/01/25 07:31:09;;;;;;;61.90;40.23;;;1.40;99.90;;;;;;4976998;28;20574;-54
2023/01/25 07:33:35;;;;;;;60.33;38.13;;;1.50;99.90;;;;;;4976931;28;20262;-54
2023/01/25 07:36:02;;;;;;;61.97;39.60;;;1.60;99.90;;;;;;4977009;28;20221;-54
2023/01/25 07:38:28;;;;;;;57.90;36.50;;;1.80;99.90;;;;;;4976868;28;20573;-54
2023/01/25 07:40:53;;;;;;;63.77;39.23;;;2.00;99.90;;;;;;4976981;28;20301;-54
2023/01/25 07:43:19;;;;;;;63.40;38.53;;;2.10;99.90;;;;;;4976867;28;20171;-54
2023/01/25 07:45:47;;;;;;;60.23;37.90;;;2.00;99.90;;;;;;4976756;28;20224;-54
2023/01/25 07:48:17;;;;;;;63.50;40.43;;;2.00;99.90;;;;;;4976974;28;20205;-54
2023/01/25 07:50:48;;;;;;;63.47;38.80;;;2.10;99.90;;;;;;4976859;28;20177;-54
2023/01/25 07:53:15;;;;;;;61.37;38.33;;;2.10;99.90;;;;;;4976814;28;20222;-54
2023/01/25 07:55:40;;;;;;;64.00;41.47;;;2.10;99.90;;;;;;4976628;28;20214;-54
2023/01/25 07:58:09;;;;;;;65.17;40.00;;;2.20;99.90;;;;;;4976561;28;20264;-55
2023/01/25 08:00:35;;;;;;;69.63;40.97;;;2.10;99.90;;;;;;4976468;28;20177;-54
2023/01/25 08:03:00;;;;;;;67.37;42.27;;;1.90;99.90;;;;;;4976699;28;20546;-56
2023/01/25 08:05:26;;;;;;;64.97;41.93;;;2.00;99.90;;;;;;4976423;28;20181;-54
2023/01/25 08:07:52;;;;;;;69.33;42.10;;;2.00;99.90;;;;;;4976431;28;20190;-53
2023/01/25 08:10:18;;;;;;;67.10;42.20;;;2.00;99.90;;;;;;4976429;28;20702;-53
2023/01/25 08:12:45;;;;;;;67.43;40.57;;;2.00;99.90;;;;;;4976180;28;20594;-55
2023/01/25 08:15:11;;;;;;;68.07;42.00;;;2.00;99.90;;;;;;4975666;28;20210;-53
2023/01/25 08:17:37;;;;;;;67.10;42.63;;;2.00;99.90;;;;;;4976186;28;20644;-54
2023/01/25 08:20:03;;;;;;;63.67;41.77;;;1.90;99.90;;;;;;4976322;28;20183;-52
2023/01/25 08:22:29;;;;;;;67.80;43.77;;;2.10;99.90;;;;;;4976200;28;20177;-54
2023/01/25 08:24:55;;;;;;;71.13;44.43;;;2.00;99.90;;;;;;4974758;28;20204;-53
2023/01/25 08:27:21;;;;;;;69.30;41.63;;;1.80;99.90;;;;;;4976481;28;20185;-54
2023/01/25 08:29:49;;;;;;;67.73;41.67;;;1.70;99.90;;;;;;4975938;28;20205;-54
2023/01/25 08:32:15;;;;;;;66.27;40.33;;;1.70;99.90;;;;;;4976070;28;20183;-53
2023/01/25 08:34:41;;;;;;;76.13;46.83;;;1.50;99.90;;;;;;4976102;28;20754;-54
2023/01/25 08:37:06;;;;;;;67.57;41.57;;;1.40;99.90;;;;;;4975835;28;20303;-54
2023/01/25 08:39:32;;;;;;;64.07;39.67;;;1.60;99.90;;;;;;4975837;28;20190;-54
2023/01/25 08:41:58;;;;;;;65.37;39.63;;;1.70;99.90;;;;;;4975799;28;20638;-55
2023/01/25 08:44:24;;;;;;;68.97;44.33;;;1.80;99.90;;;;;;4975589;28;20616;-54
2023/01/25 08:46:51;;;;;;;79.77;56.50;;;1.90;99.90;;;;;;4975941;28;20191;-54
2023/01/25 08:49:17;;;;;;;70.60;46.23;;;1.80;99.90;;;;;;4975747;28;20181;-53
2023/01/25 08:51:42;;;;;;;69.97;45.37;;;1.60;99.90;;;;;;4975693;28;20604;-53
2023/01/25 08:54:11;;;;;;;70.87;44.23;;;1.70;99.90;;;;;;4975643;28;20272;-54
2023/01/25 08:56:41;;;;;;;67.40;41.93;;;1.50;99.90;;;;;;4975403;28;20210;-52
2023/01/25 08:59:10;;;;;;;67.03;41.77;;;1.40;99.90;;;;;;4975392;28;20179;-53
2023/01/25 09:01:35;;;;;;;69.00;42.27;;;1.40;99.90;;;;;;4975568;28;20177;-52
2023/01/25 09:04:01;;;;;;;67.67;42.30;;;1.60;99.90;;;;;;4975589;28;20699;-55
2023/01/25 09:06:27;;;;;;;71.03;43.60;;;1.80;99.90;;;;;;4975396;28;20188;-55
2023/01/25 09:08:52;;;;;;;69.03;42.83;;;1.90;99.90;;;;;;4975369;28;20236;-54
2023/01/25 09:11:20;;;;;;;70.17;43.17;;;2.00;99.90;;;;;;4975206;28;20185;-54
2023/01/25 09:13:47;;;;;;;70.20;40.73;;;1.90;99.90;;;;;;4975358;28;20189;-54
2023/01/25 09:16:26;;;;;;;69.90;43.80;;;2.00;99.90;;;;;;4975126;28;20217;-52
2023/01/25 09:18:51;;;;;;;72.10;42.33;;;2.10;99.90;;;;;;4975233;28;20532;-51
2023/01/25 09:21:18;;;;;;;72.00;42.90;;;2.20;99.90;;;;;;4975039;28;20181;-53
2023/01/25 09:23:47;;;;;;;70.00;41.43;;;2.10;99.90;;;;;;4974904;28;20196;-53
2023/01/25 09:26:14;;;;;;;71.60;43.27;;;2.10;99.90;;;;;;4974061;28;20189;-53
2023/01/25 09:28:41;;;;;;;73.33;44.53;;;2.20;99.90;;;;;;4975014;28;20217;-54
2023/01/25 09:31:06;;;;;;;68.10;42.95;;;2.10;99.90;;;;;;4974998;28;20583;-54
2023/01/25 09:33:35;;;;;;;78.53;44.80;;;2.30;99.90;;;;;;4974894;28;20320;-54
2023/01/25 09:36:01;;;;;;;73.87;45.37;;;2.30;99.90;;;;;;4974780;28;20682;-55
2023/01/25 09:38:27;;;;;;;75.80;46.00;;;2.40;99.90;;;;;;4974702;28;20174;-54
2023/01/25 09:41:24;;;;;;;75.13;42.92;;;2.40;99.90;;;;;;4975037;28;20645;-53
2023/01/25 09:44:14;;;;;;;70.88;43.00;;;2.40;99.90;;;;;;4974927;28;20210;-51
2023/01/25 09:46:43;;;;;;;72.28;44.58;;;2.50;99.90;;;;;;4974733;28;20268;-53
2023/01/25 09:49:33;;;;;;;70.33;42.77;;;2.40;99.90;;;;;;4974843;28;20181;-53
2023/01/25 09:52:18;;;;;;;74.93;43.70;;;2.40;99.90;;;;;;4975008;28;20232;-53
2023/01/25 09:54:45;;;;;;;77.68;45.05;;;2.40;99.90;;;;;;4974686;28;20165;-54
2023/01/25 09:57:34;;;;;;;74.27;45.37;;;2.00;99.90;;;;;;4974329;28;20213;-55
2023/01/25 10:00:07;;;;;;;79.47;46.77;;;1.90;99.90;;;;;;4974734;28;20174;-55
2023/01/25 10:02:42;;;;;;;95.50;56.63;;;1.80;99.90;;;;;;4974510;28;20213;-55
2023/01/25 10:05:15;;;;;;;79.70;46.77;;;1.80;99.90;;;;;;4974621;28;20212;-54
2023/01/25 10:07:57;;;;;;;77.87;45.13;;;1.90;99.90;;;;;;4974399;28;20207;-54
2023/01/25 10:10:38;;;;;;;83.83;50.23;;;2.10;99.90;;;;;;4974544;28;20182;-54
2023/01/25 10:13:13;;;;;;;81.20;47.40;;;2.30;99.90;;;;;;4974601;28;20165;-52
2023/01/25 10:16:26;;;;;;;83.50;46.13;;;2.10;99.90;;;;;;4974425;28;20208;-54
2023/01/25 10:19:02;;;;;;;76.83;43.40;;;1.90;99.90;;;;;;4914775;29;20283;-54
2023/01/25 10:21:42;;;;;;;79.73;42.97;;;2.10;99.90;;;;;;4914957;29;20184;-54
2023/01/25 10:24:38;;;;;;;88.73;46.93;;;2.20;99.90;;;;;;4956477;28;20208;-54
2023/01/25 10:27:37;;;;;;;80.47;43.80;;;2.30;99.90;;;;;;4974515;28;20180;-54
2023/01/25 10:30:26;;;;;;;82.07;44.23;;;2.30;99.90;;;;;;4974424;28;20250;-54
2023/01/25 10:33:01;;;;;;;84.27;46.27;;;2.40;99.90;;;;;;4974240;28;20174;-54
2023/01/25 10:35:35;;;;;;;83.23;47.30;;;2.50;99.90;;;;;;4974442;28;20288;-54
2023/01/25 10:38:38;;;;;;;81.50;47.13;;;2.40;99.90;;;;;;4977427;28;20174;-53
2023/01/25 10:41:15;;;;;;;83.93;50.63;;;2.50;99.90;;;;;;4977997;28;20212;-53
2023/01/25 10:43:40;;;;;;;83.30;46.40;;;2.50;99.90;;;;;;4978201;28;20173;-54
2023/01/25 10:46:19;;;;;;;88.80;48.20;;;2.50;99.90;;;;;;4977987;28;20187;-53
2023/01/25 10:48:44;;;;;;;83.40;45.40;;;2.60;99.90;;;;;;4978036;28;20173;-53
2023/01/25 10:51:28;;;;;;;81.37;46.80;;;2.60;99.90;;;;;;4978126;28;20536;-51
2023/01/25 10:54:04;;;;;;;87.37;48.67;;;2.40;99.90;;;;;;4978000;28;20622;-54
2023/01/25 10:56:34;;;;;;;90.07;45.83;;;2.50;99.90;;;;;;4977780;28;20227;-54
2023/01/25 10:59:22;;;;;;;88.60;47.20;;;2.60;99.90;;;;;;4977731;28;20185;-52
2023/01/25 11:01:48;;;;;;;85.27;46.57;;;2.70;99.90;;;;;;4977613;28;20175;-54
2023/01/25 11:04:30;;;;;;;88.83;46.20;;;2.70;99.90;;;;;;4977871;28;20186;-54
2023/01/25 11:06:56;;;;;;;84.03;45.77;;;2.60;99.90;;;;;;4977628;28;20189;-53
2023/01/25 11:09:21;;;;;;;83.33;45.10;;;2.60;99.90;;;;;;4977561;28;20185;-53
2023/01/25 11:11:55;;;;;;;86.93;45.13;;;2.50;99.90;;;;;;4977360;28;20224;-52
2023/01/25 11:14:25;;;;;;;80.87;46.90;;;2.70;99.90;;;;;;4977377;28;20231;-52
2023/01/25 11:16:51;;;;;;;80.20;46.20;;;2.70;99.90;;;;;;4977711;28;20225;-56
2023/01/25 11:19:35;;;;;;;81.27;47.57;;;2.70;99.90;;;;;;4977622;28;20649;-55
2023/01/25 11:22:17;;;;;;;75.30;46.50;;;2.80;99.90;;;;;;4977279;28;20181;-50
2023/01/25 11:24:43;;;;;;;80.07;47.47;;;2.90;99.90;;;;;;4977554;28;20269;-55
2023/01/25 11:27:20;;;;;;;78.67;47.93;;;2.80;99.90;;;;;;4977391;28;20220;-52
2023/01/25 11:30:04;;;;;;;73.50;45.73;;;2.80;99.90;;;;;;4977301;28;20231;-53
2023/01/25 11:32:31;;;;;;;81.43;45.93;;;2.90;99.90;;;;;;4977100;28;20566;-53
2023/01/25 11:34:57;;;;;;;83.67;49.30;;;2.90;99.90;;;;;;4976857;28;20180;-55
2023/01/25 11:37:58;;;;;;;87.63;50.00;;;3.00;99.90;;;;;;4976692;28;20559;-53
2023/01/25 11:40:47;;;;;;;75.10;45.10;;;3.00;99.90;;;;;;4974374;28;20239;-55
2023/01/25 11:43:33;;;;;;;78.55;46.90;;;2.90;99.90;;;;;;4949457;28;20202;-56
2023/01/25 11:46:09;;;;;;;79.87;46.77;;;2.90;99.90;;;;;;4977099;28;20176;-55
2023/01/25 11:49:04;;;;;;;78.03;44.30;;;2.90;99.90;;;;;;4975768;28;20205;-55
2023/01/25 11:51:43;;;;;;;80.17;45.13;;;2.80;99.90;;;;;;4976889;28;20571;-54
2023/01/25 11:54:24;;;;;;;83.17;47.60;;;2.90;99.90;;;;;;4976637;28;20565;-55
2023/01/25 11:56:58;;;;;;;82.07;47.07;;;2.80;99.90;;;;;;4976578;28;20687;-54
2023/01/25 11:59:33;;;;;;;78.53;45.67;;;2.90;99.90;;;;;;4976815;28;20186;-55
2023/01/25 12:02:14;;;;;;;82.27;46.70;;;2.90;99.90;;;;;;4976617;28;20332;-54
2023/01/25 12:05:29;;;;;;;79.65;47.25;;;2.90;99.90;;;;;;4975540;28;20649;-53
2023/01/25 12:07:57;;;;;;;84.80;46.03;;;3.00;99.90;;;;;;4943696;28;20189;-55
2023/01/25 12:10:54;;;;;;;84.70;45.60;;;2.90;99.90;;;;;;4976367;28;20255;-55
2023/01/25 12:13:34;;;;;;;86.80;49.87;;;2.90;99.90;;;;;;4976529;28;20212;-54
2023/01/25 12:16:30;;;;;;;80.78;45.65;;;2.80;99.90;;;;;;4976414;28;20236;-56
2023/01/25 12:19:11;;;;;;;88.83;49.90;;;2.90;99.90;;;;;;4976252;28;20658;-56
2023/01/25 12:22:03;;;;;;;90.63;46.67;;;2.60;99.90;;;;;;4976443;28;20178;-50
2023/01/25 12:24:57;;;;;;;86.90;48.53;;;2.60;99.90;;;;;;4976412;28;20190;-55
2023/01/25 12:27:50;;;;;;;90.37;48.03;;;2.70;99.90;;;;;;4976176;28;20545;-53
2023/01/25 12:30:35;;;;;;;97.77;50.13;;;2.80;99.90;;;;;;4976186;28;20261;-53
2023/01/25 12:33:38;;;;;;;89.87;52.33;;;2.80;99.90;;;;;;4975957;28;20180;-56
2023/01/25 12:36:18;;;;;;;96.90;52.47;;;2.70;99.90;;;;;;4975856;28;20292;-56
2023/01/25 12:39:08;;;;;;;93.50;50.05;;;2.70;99.90;;;;;;4975994;28;20606;-55
2023/01/25 12:42:03;;;;;;;94.53;49.53;;;2.90;99.90;;;;;;4975777;28;20203;-55
2023/01/25 12:44:37;;;;;;;97.23;50.80;;;3.00;99.90;;;;;;4976043;28;20176;-54
2023/01/25 12:47:36;;;;;;;94.10;50.27;;;2.90;99.90;;;;;;4976013;28;20214;-55
2023/01/25 12:50:12;;;;;;;99.63;54.93;;;3.00;99.90;;;;;;4975661;28;20543;-54
2023/01/25 12:52:46;;;;;;;94.03;51.47;;;3.00;99.90;;;;;;4975575;28;20181;-55
2023/01/25 12:55:15;;;;;;;88.00;50.13;;;3.10;99.90;;;;;;4975833;28;20187;-56